createdAt,value
2018-07-23T00:02:12.777Z,4.37
2018-07-23T00:04:41.467Z,3.70
2018-07-23T00:07:10.244Z,4.40
2018-07-23T00:09:38.219Z,3.90
2018-07-23T00:12:06.989Z,3.63
2018-07-23T00:14:35.911Z,4.60
2018-07-23T00:17:04.499Z,4.80
2018-07-23T00:19:32.471Z,4.13
2018-07-23T00:22:00.480Z,4.20
2018-07-23T00:24:28.470Z,4.13
2018-07-23T00:26:56.904Z,4.80
2018-07-23T00:29:24.928Z,4.80
2018-07-23T00:31:52.912Z,3.17
2018-07-23T00:34:20.888Z,4.03
2018-07-23T00:36:49.434Z,4.13
2018-07-23T00:39:17.462Z,4.00
2018-07-23T00:41:45.445Z,4.00
2018-07-23T00:44:13.454Z,3.67
2018-07-23T00:46:41.708Z,4.20
2018-07-23T00:49:09.708Z,3.90
2018-07-23T00:51:37.725Z,4.50
2018-07-23T00:54:05.707Z,4.93
2018-07-23T00:56:33.805Z,4.03
2018-07-23T00:59:01.809Z,4.27
2018-07-23T01:01:31.660Z,4.47
2018-07-23T01:04:00.684Z,4.40
2018-07-23T01:06:28.693Z,4.33
2018-07-23T01:08:56.780Z,4.33
2018-07-23T01:11:25.375Z,4.20
2018-07-23T01:13:53.565Z,4.50
2018-07-23T01:16:21.544Z,4.70
2018-07-23T01:18:49.512Z,4.93
2018-07-23T01:21:17.537Z,4.07
2018-07-23T01:23:45.898Z,4.10
2018-07-23T01:26:13.913Z,4.40
2018-07-23T01:28:42.010Z,4.10
2018-07-23T01:31:10.420Z,4.23
2018-07-23T01:33:38.404Z,4.07
2018-07-23T01:36:06.535Z,4.20
2018-07-23T01:38:35.041Z,4.63
2018-07-23T01:41:03.639Z,5.07
2018-07-23T01:43:31.751Z,4.90
2018-07-23T01:46:00.026Z,4.00
2018-07-23T01:48:29.041Z,4.10
2018-07-23T01:50:57.040Z,3.50
2018-07-23T01:53:25.024Z,4.63
2018-07-23T01:55:53.209Z,3.77
2018-07-23T01:58:22.003Z,4.17
2018-07-23T02:00:50.079Z,4.37
2018-07-23T02:03:18.476Z,5.03
2018-07-23T02:05:46.775Z,3.57
2018-07-23T02:08:14.880Z,5.57
2018-07-23T02:10:42.871Z,4.83
2018-07-23T02:13:11.161Z,4.60
2018-07-23T02:15:39.879Z,3.73
2018-07-23T02:18:08.505Z,3.43
2018-07-23T02:20:37.104Z,5.13
2018-07-23T02:23:05.085Z,3.87
2018-07-23T02:25:33.245Z,3.77
2018-07-23T02:28:01.272Z,4.40
2018-07-23T02:30:29.231Z,4.17
2018-07-23T02:32:57.215Z,4.20
2018-07-23T02:35:25.278Z,4.00
2018-07-23T02:37:53.261Z,4.37
2018-07-23T02:40:21.402Z,4.37
2018-07-23T02:42:50.383Z,4.70
2018-07-23T02:45:18.444Z,3.83
2018-07-23T02:47:47.045Z,5.03
2018-07-23T02:50:15.766Z,3.60
2018-07-23T02:52:43.766Z,5.13
2018-07-23T02:55:12.221Z,4.57
2018-07-23T02:57:40.214Z,4.50
2018-07-23T03:00:08.215Z,4.70
2018-07-23T03:02:36.200Z,4.37
2018-07-23T03:05:04.217Z,4.87
2018-07-23T03:07:33.283Z,4.10
2018-07-23T03:10:01.424Z,6.87
2018-07-23T03:12:29.455Z,5.20
2018-07-23T03:14:57.453Z,4.60
2018-07-23T03:17:25.428Z,4.50
2018-07-23T03:19:53.441Z,4.93
2018-07-23T03:22:21.671Z,4.57
2018-07-23T03:24:49.668Z,7.07
2018-07-23T03:27:18.191Z,4.33
2018-07-23T03:29:46.164Z,4.40
2018-07-23T03:32:14.602Z,4.70
2018-07-23T03:34:44.273Z,4.30
2018-07-23T03:37:12.312Z,4.70
2018-07-23T03:39:40.400Z,4.77
2018-07-23T03:42:09.333Z,4.93
2018-07-23T03:44:37.369Z,7.03
2018-07-23T03:47:05.339Z,6.40
2018-07-23T03:49:33.344Z,5.87
2018-07-23T03:52:01.828Z,5.33
2018-07-23T03:54:29.852Z,4.63
2018-07-23T03:56:58.063Z,4.20
2018-07-23T03:59:26.040Z,4.63
2018-07-23T04:01:54.030Z,4.60
2018-07-23T04:04:22.248Z,4.60
2018-07-23T04:06:50.218Z,4.90
2018-07-23T04:09:18.184Z,4.57
2018-07-23T04:11:46.303Z,4.33
2018-07-23T04:14:14.633Z,5.63
2018-07-23T04:16:42.629Z,4.40
2018-07-23T04:19:10.721Z,4.10
2018-07-23T04:21:38.872Z,4.87
2018-07-23T04:24:06.869Z,5.70
2018-07-23T04:26:35.001Z,5.27
2018-07-23T04:29:03.004Z,4.27
2018-07-23T04:31:31.013Z,5.00
2018-07-23T04:33:59.032Z,4.57
2018-07-23T04:36:27.614Z,4.90
2018-07-23T04:38:55.601Z,5.17
2018-07-23T04:41:23.616Z,4.70
2018-07-23T04:43:52.442Z,4.60
2018-07-23T04:46:21.350Z,4.60
2018-07-23T04:48:49.369Z,6.40
2018-07-23T04:51:17.505Z,5.20
2018-07-23T04:53:45.492Z,5.10
2018-07-23T04:56:13.602Z,5.27
2018-07-23T04:58:41.755Z,5.60
2018-07-23T05:01:09.737Z,5.40
2018-07-23T05:03:38.764Z,4.63
2018-07-23T05:06:06.909Z,5.47
2018-07-23T05:08:34.945Z,4.80
2018-07-23T05:11:02.985Z,5.53
2018-07-23T05:13:31.334Z,5.70
2018-07-23T05:15:59.346Z,6.73
2018-07-23T05:18:27.381Z,5.33
2018-07-23T05:20:55.361Z,5.87
2018-07-23T05:23:23.504Z,5.03
2018-07-23T05:25:51.503Z,5.37
2018-07-23T05:28:22.049Z,4.67
2018-07-23T05:30:50.157Z,5.67
2018-07-23T05:33:18.158Z,5.60
2018-07-23T05:35:47.051Z,5.97
2018-07-23T05:38:15.175Z,6.00
2018-07-23T05:40:43.182Z,4.97
2018-07-23T05:43:11.240Z,6.47
2018-07-23T05:45:39.240Z,6.30
2018-07-23T05:48:07.263Z,5.90
2018-07-23T05:50:35.265Z,5.13
2018-07-23T05:53:03.685Z,6.57
2018-07-23T05:55:32.926Z,5.53
2018-07-23T05:58:01.015Z,5.40
2018-07-23T06:00:29.089Z,6.57
2018-07-23T06:02:57.887Z,5.60
2018-07-23T06:05:26.103Z,5.37
2018-07-23T06:07:54.247Z,5.20
2018-07-23T06:10:22.332Z,5.00
2018-07-23T06:12:50.468Z,5.03
2018-07-23T06:15:18.476Z,5.27
2018-07-23T06:17:46.510Z,4.60
2018-07-23T06:20:14.524Z,5.50
2018-07-23T06:22:42.759Z,4.93
2018-07-23T06:25:10.781Z,4.57
2018-07-23T06:27:38.768Z,4.97
2018-07-23T06:30:07.947Z,5.20
2018-07-23T06:32:36.191Z,4.90
2018-07-23T06:35:04.180Z,4.90
2018-07-23T06:37:32.169Z,5.13
2018-07-23T06:40:00.211Z,4.40
2018-07-23T06:42:28.267Z,5.20
2018-07-23T06:44:56.259Z,4.83
2018-07-23T06:47:24.278Z,5.13
2018-07-23T06:49:52.334Z,3.93
2018-07-23T06:52:20.537Z,4.10
2018-07-23T06:54:48.949Z,3.93
2018-07-23T06:57:16.956Z,6.60
2018-07-23T06:59:44.951Z,5.10
2018-07-23T07:02:13.110Z,4.07
2018-07-23T07:04:41.136Z,3.20
2018-07-23T07:07:09.453Z,4.47
2018-07-23T07:09:37.492Z,4.10
2018-07-23T07:12:05.470Z,5.20
2018-07-23T07:14:35.072Z,6.60
2018-07-23T07:17:03.234Z,4.03
2018-07-23T07:19:31.585Z,3.60
2018-07-23T07:21:59.596Z,4.37
2018-07-23T07:24:27.747Z,5.10
2018-07-23T07:26:55.763Z,3.97
2018-07-23T07:29:23.755Z,3.80
2018-07-23T07:31:51.779Z,4.50
2018-07-23T07:34:19.807Z,4.47
2018-07-23T07:36:47.939Z,4.47
2018-07-23T07:39:16.048Z,3.60
2018-07-23T07:41:44.539Z,4.20
2018-07-23T07:44:12.604Z,4.13
2018-07-23T07:46:41.112Z,5.30
2018-07-23T07:49:09.661Z,3.67
2018-07-23T07:51:38.314Z,4.53
2018-07-23T07:54:06.373Z,4.80
2018-07-23T07:56:34.598Z,4.40
2018-07-23T07:59:03.341Z,3.73
2018-07-23T08:01:38.424Z,4.17
2018-07-23T08:09:19.301Z,4.40
2018-07-23T08:11:47.293Z,4.97
2018-07-23T08:14:16.202Z,4.37
2018-07-23T08:16:44.285Z,4.70
2018-07-23T08:19:12.281Z,4.40
2018-07-23T08:21:40.301Z,4.40
2018-07-23T08:24:08.320Z,3.60
2018-07-23T08:26:36.300Z,5.30
2018-07-23T08:29:04.280Z,4.03
2018-07-23T08:31:32.801Z,3.83
2018-07-23T08:34:00.736Z,5.10
2018-07-23T08:36:29.161Z,4.67
2018-07-23T08:38:57.197Z,4.53
2018-07-23T08:41:25.332Z,4.87
2018-07-23T08:43:53.316Z,5.10
2018-07-23T08:46:21.861Z,5.47
2018-07-23T08:48:49.882Z,4.50
2018-07-23T08:51:17.929Z,5.40
2018-07-23T08:53:45.945Z,5.00
2018-07-23T08:56:13.962Z,5.47
2018-07-23T08:58:41.968Z,5.77
2018-07-23T09:01:09.997Z,4.83
2018-07-23T09:03:38.107Z,5.37
2018-07-23T09:06:07.080Z,5.70
2018-07-23T09:08:35.507Z,4.70
2018-07-23T09:11:03.427Z,4.33
2018-07-23T09:13:31.428Z,4.60
2018-07-23T09:15:59.529Z,4.30
2018-07-23T09:18:27.520Z,8.53
2018-07-23T09:20:55.825Z,4.53
2018-07-23T09:23:23.944Z,4.20
2018-07-23T09:25:52.703Z,3.87
2018-07-23T09:28:21.695Z,4.30
2018-07-23T09:30:51.427Z,4.33
2018-07-23T09:33:23.008Z,4.67
2018-07-23T09:35:51.761Z,4.43
2018-07-23T09:38:20.635Z,4.73
2018-07-23T09:40:48.646Z,5.80
2018-07-23T09:46:21.209Z,5.70
2018-07-23T09:48:49.324Z,4.10
2018-07-23T09:51:17.390Z,4.00
2018-07-23T09:53:47.145Z,4.67
2018-07-23T09:56:15.170Z,5.13
2018-07-23T09:58:43.164Z,5.47
2018-07-23T10:01:11.289Z,5.20
2018-07-23T10:03:39.980Z,4.70
2018-07-23T10:06:08.635Z,3.90
2018-07-23T10:08:36.614Z,4.10
2018-07-23T10:33:39.127Z,5.13
2018-07-23T10:36:23.963Z,4.23
2018-07-23T10:39:19.898Z,3.63
2018-07-23T10:41:48.007Z,3.67
2018-07-23T10:44:16.021Z,3.60
2018-07-23T10:46:44.233Z,4.17
2018-07-23T10:49:12.841Z,3.27
2018-07-23T10:59:24.672Z,3.53
2018-07-23T11:01:52.873Z,3.47
2018-07-23T11:04:20.903Z,4.53
2018-07-23T11:06:49.557Z,4.47
2018-07-23T11:09:18.208Z,3.80
2018-07-23T11:11:46.811Z,4.23
2018-07-23T11:14:14.867Z,5.17
2018-07-23T11:16:42.847Z,4.23
2018-07-23T11:19:10.891Z,3.63
2018-07-23T11:21:38.965Z,3.57
2018-07-23T11:24:06.971Z,3.87
2018-07-23T11:26:35.007Z,3.30
2018-07-23T11:29:03.502Z,3.93
2018-07-23T11:31:31.520Z,3.10
2018-07-23T11:33:59.518Z,3.47
2018-07-23T11:36:27.712Z,3.60
2018-07-23T11:38:55.852Z,3.63
2018-07-23T11:41:23.848Z,3.93
2018-07-23T11:43:51.943Z,3.37
2018-07-23T11:46:24.984Z,2.97
2018-07-23T11:48:48.725Z,3.10
2018-07-23T11:51:17.225Z,2.90
2018-07-23T11:53:46.115Z,2.93
2018-07-23T11:56:14.172Z,3.00
2018-07-23T11:58:43.116Z,2.70
2018-07-23T12:01:11.118Z,3.20
2018-07-23T12:03:40.259Z,2.53
2018-07-23T12:06:09.038Z,2.97
2018-07-23T12:08:37.011Z,2.90
2018-07-23T12:11:04.976Z,2.37
2018-07-23T12:19:15.278Z,2.40
2018-07-23T12:21:43.277Z,2.63
2018-07-23T12:24:11.273Z,2.20
2018-07-23T12:26:39.262Z,1.93
2018-07-23T12:29:07.249Z,2.67
2018-07-23T12:31:35.276Z,2.37
2018-07-23T12:34:03.276Z,2.20
2018-07-23T12:36:31.253Z,2.60
2018-07-23T12:38:59.245Z,2.10
2018-07-23T12:41:27.260Z,3.33
2018-07-23T12:43:55.245Z,3.10
2018-07-23T12:46:23.228Z,2.50
2018-07-23T12:48:52.056Z,2.67
2018-07-23T12:51:20.672Z,3.00
2018-07-23T12:53:49.490Z,2.47
2018-07-23T12:56:17.490Z,2.80
2018-07-23T12:58:46.386Z,3.03
2018-07-23T13:01:14.588Z,2.10
2018-07-23T13:03:42.613Z,2.17
2018-07-23T13:06:10.607Z,2.90
2018-07-23T13:08:38.575Z,2.53
2018-07-23T13:11:06.600Z,3.27
2018-07-23T13:13:34.583Z,2.87
2018-07-23T13:16:02.557Z,2.90
2018-07-23T13:18:30.568Z,6.27
2018-07-23T13:20:58.547Z,2.50
2018-07-23T13:23:27.244Z,2.40
2018-07-23T13:25:55.974Z,2.87
2018-07-23T13:28:23.965Z,2.30
2018-07-23T13:30:51.971Z,2.20
2018-07-23T13:33:19.951Z,1.90
2018-07-23T13:35:48.668Z,2.23
2018-07-23T13:38:17.286Z,2.90
2018-07-23T13:44:08.576Z,2.03
2018-07-23T13:46:37.105Z,2.20
2018-07-23T13:49:05.566Z,2.73
2018-07-23T13:51:33.642Z,2.00
2018-07-23T13:54:02.143Z,2.30
2018-07-23T13:56:30.119Z,3.43
2018-07-23T13:58:59.531Z,3.30
2018-07-23T14:01:28.134Z,2.20
2018-07-23T14:03:56.439Z,2.40
2018-07-23T14:06:24.634Z,2.57
2018-07-23T14:08:53.445Z,1.73
2018-07-23T14:11:22.376Z,1.90
2018-07-23T14:13:50.541Z,1.83
2018-07-23T14:16:18.987Z,2.10
2018-07-23T14:18:47.109Z,2.60
2018-07-23T14:21:15.095Z,4.63
2018-07-23T14:23:43.295Z,2.27
2018-07-23T14:26:12.139Z,2.00
2018-07-23T14:28:40.149Z,2.53
2018-07-23T14:31:08.249Z,2.50
2018-07-23T14:33:36.440Z,2.53
2018-07-23T14:36:04.433Z,2.33
2018-07-23T14:38:32.969Z,2.33
2018-07-23T14:41:01.312Z,3.17
2018-07-23T14:43:29.280Z,2.60
2018-07-23T14:45:57.595Z,2.60
2018-07-23T15:23:59.812Z,3.00
2018-07-23T15:26:27.824Z,12.33
2018-07-23T15:28:55.811Z,3.10
2018-07-23T15:31:46.696Z,2.63
2018-07-23T15:59:44.200Z,3.40
2018-07-23T16:02:12.311Z,2.40
2018-07-23T16:04:40.377Z,2.40
2018-07-23T16:07:08.359Z,2.93
2018-07-23T16:09:36.378Z,2.20
2018-07-23T16:12:05.076Z,2.87
2018-07-23T16:14:33.057Z,2.77
2018-07-23T16:17:01.933Z,2.93
2018-07-23T16:19:30.180Z,2.60
2018-07-23T16:21:58.153Z,2.77
2018-07-23T16:24:27.360Z,2.60
2018-07-23T16:26:55.376Z,2.43
2018-07-23T16:29:23.348Z,2.30
2018-07-23T16:31:51.353Z,2.10
2018-07-23T16:34:19.354Z,2.43
2018-07-23T16:36:47.354Z,3.20
2018-07-23T16:39:15.362Z,2.10
2018-07-23T16:41:43.599Z,2.47
2018-07-23T16:44:11.575Z,2.13
2018-07-23T16:46:40.119Z,2.17
2018-07-23T16:49:08.070Z,3.10
2018-07-23T16:51:36.071Z,2.30
2018-07-23T16:54:04.129Z,4.27
2018-07-23T16:56:32.695Z,2.07
2018-07-23T16:59:00.720Z,2.47
2018-07-23T17:01:28.738Z,2.53
2018-07-23T17:03:56.724Z,2.33
2018-07-23T17:06:25.507Z,3.23
2018-07-23T17:08:53.514Z,2.10
2018-07-23T17:11:21.491Z,2.60
2018-07-23T17:13:49.474Z,2.20
2018-07-23T17:16:17.551Z,2.93
2018-07-23T17:18:46.388Z,3.23
2018-07-23T17:21:14.488Z,2.67
2018-07-23T17:23:42.525Z,2.60
2018-07-23T17:26:10.907Z,3.70
2018-07-23T17:28:38.879Z,2.57
2018-07-23T17:31:07.053Z,2.33
2018-07-23T17:33:35.011Z,2.20
2018-07-23T17:36:03.016Z,2.40
2018-07-23T17:38:31.097Z,2.67
2018-07-23T17:40:59.083Z,2.97
2018-07-23T17:43:27.062Z,3.23
2018-07-23T17:45:55.114Z,2.97
2018-07-23T17:48:23.110Z,2.80
2018-07-23T17:50:51.093Z,2.23
2018-07-23T17:53:19.094Z,2.50
2018-07-23T17:55:47.070Z,3.30
2018-07-23T17:58:15.113Z,2.50
2018-07-23T18:00:43.944Z,2.47
2018-07-23T18:03:11.956Z,2.43
2018-07-23T18:05:39.949Z,2.83
2018-07-23T18:08:08.571Z,2.30
2018-07-23T18:10:36.626Z,2.87
2018-07-23T18:13:05.407Z,2.50
2018-07-23T18:15:33.391Z,2.30
2018-07-23T18:18:01.665Z,2.40
2018-07-23T18:20:29.715Z,2.53
2018-07-23T18:22:57.738Z,3.27
2018-07-23T18:25:25.732Z,2.43
2018-07-23T18:27:53.847Z,2.63
2018-07-23T18:30:21.928Z,2.67
2018-07-23T18:32:49.963Z,2.57
2018-07-23T18:35:18.996Z,2.60
2018-07-23T18:37:47.922Z,2.37
2018-07-23T18:40:15.919Z,2.63
2018-07-23T18:42:50.483Z,3.10
2018-07-23T18:45:18.627Z,2.40
2018-07-23T18:47:46.670Z,2.60
2018-07-23T18:50:14.862Z,3.13
2018-07-23T18:52:42.894Z,4.67
2018-07-23T18:55:10.950Z,2.60
2018-07-23T18:57:39.197Z,2.73
2018-07-23T19:00:07.365Z,3.30
2018-07-23T19:02:36.200Z,4.50
2018-07-23T19:05:05.648Z,6.07
2018-07-23T19:07:33.662Z,5.77
2018-07-23T19:10:01.646Z,5.80
2018-07-23T19:12:30.278Z,4.63
2018-07-23T19:14:58.320Z,5.07
2018-07-23T19:17:26.444Z,4.83
2018-07-23T19:19:55.033Z,4.30
2018-07-23T19:22:24.257Z,3.93
2018-07-23T19:24:52.464Z,3.63
2018-07-23T19:27:20.667Z,3.40
2018-07-23T19:29:48.701Z,3.40
2018-07-23T19:32:16.822Z,3.23
2018-07-23T19:34:44.832Z,4.20
2018-07-23T19:37:12.861Z,2.97
2018-07-23T19:39:41.102Z,3.70
2018-07-23T19:42:09.354Z,3.37
2018-07-23T19:44:37.388Z,2.57
2018-07-23T19:47:05.402Z,3.10
2018-07-23T19:49:33.597Z,4.03
2018-07-23T19:52:01.695Z,4.20
2018-07-23T19:54:29.821Z,3.73
2018-07-23T19:56:57.878Z,3.60
2018-07-23T19:59:26.911Z,4.00
2018-07-23T20:01:55.731Z,3.63
2018-07-23T20:04:23.740Z,3.33
2018-07-23T20:06:52.704Z,4.30
2018-07-23T20:09:21.776Z,2.97
2018-07-23T20:11:50.190Z,3.53
2018-07-23T20:14:19.212Z,4.70
2018-07-23T20:16:47.738Z,2.80
2018-07-23T20:19:15.839Z,3.80
2018-07-23T20:21:43.889Z,4.07
2018-07-23T20:24:11.956Z,3.33
2018-07-23T20:26:39.976Z,4.00
2018-07-23T20:29:07.997Z,5.07
2018-07-23T20:31:36.204Z,3.20
2018-07-23T20:34:04.208Z,3.73
2018-07-23T20:36:32.453Z,3.60
2018-07-23T20:39:00.610Z,3.80
2018-07-23T20:41:28.597Z,3.53
2018-07-23T20:43:56.708Z,3.47
2018-07-23T20:46:24.923Z,3.80
2018-07-23T20:48:52.993Z,3.93
2018-07-23T20:51:21.079Z,4.63
2018-07-23T20:53:49.357Z,4.07
2018-07-23T20:56:18.136Z,3.93
2018-07-23T20:58:46.347Z,4.20
2018-07-23T21:01:16.480Z,4.10
2018-07-23T21:03:44.636Z,5.80
2018-07-23T21:06:12.795Z,4.30
2018-07-23T21:08:40.841Z,3.70
2018-07-23T21:11:09.018Z,4.23
2018-07-23T21:13:37.089Z,4.27
2018-07-23T21:16:05.273Z,4.33
2018-07-23T21:18:33.299Z,5.50
2018-07-23T21:21:01.304Z,5.40
2018-07-23T21:23:29.273Z,4.20
2018-07-23T21:25:57.278Z,4.97
2018-07-23T21:28:25.492Z,3.93
2018-07-23T21:30:53.485Z,4.87
2018-07-23T21:33:21.525Z,4.00
2018-07-23T21:35:50.263Z,4.13
2018-07-23T21:38:18.279Z,5.00
2018-07-23T21:40:46.291Z,4.63
2018-07-23T21:43:14.560Z,4.20
2018-07-23T21:45:43.624Z,5.23
2018-07-23T21:48:12.330Z,3.97
2018-07-23T21:50:40.371Z,5.60
2018-07-23T21:53:10.172Z,6.00
2018-07-23T21:55:38.290Z,3.90
2018-07-23T21:58:06.413Z,3.90
2018-07-23T22:00:35.969Z,4.00
2018-07-23T22:03:04.000Z,5.10
2018-07-23T22:05:32.167Z,5.73
2018-07-23T22:08:00.770Z,5.07
2018-07-23T22:10:28.764Z,4.23
2018-07-23T22:12:56.836Z,4.50
2018-07-23T22:15:24.905Z,4.50
2018-07-23T22:17:53.500Z,3.70
2018-07-23T22:20:22.145Z,4.43
2018-07-23T22:22:50.169Z,3.80
2018-07-23T22:25:18.209Z,3.33
2018-07-23T22:27:46.314Z,4.07
2018-07-23T22:30:16.101Z,3.30
2018-07-23T22:32:44.061Z,5.60
2018-07-23T22:35:12.072Z,4.20
2018-07-23T22:37:40.127Z,4.60
2018-07-23T22:40:08.143Z,4.17
2018-07-23T22:42:37.156Z,3.63
2018-07-23T22:45:05.435Z,4.67
2018-07-23T22:47:34.211Z,4.70
2018-07-23T22:50:03.346Z,4.93
2018-07-23T22:52:31.385Z,4.90
2018-07-23T22:54:59.669Z,4.13
2018-07-23T22:57:28.458Z,3.40
2018-07-23T22:59:56.471Z,3.60
2018-07-23T23:02:24.459Z,4.77
2018-07-23T23:04:53.717Z,3.97
2018-07-23T23:07:21.735Z,4.10
2018-07-23T23:09:49.927Z,3.90
2018-07-23T23:12:17.948Z,3.93
2018-07-23T23:14:45.960Z,3.47
2018-07-23T23:17:13.962Z,4.10
2018-07-23T23:19:42.666Z,5.07
2018-07-23T23:22:10.674Z,5.60
2018-07-23T23:24:38.710Z,4.50
2018-07-23T23:27:06.750Z,4.40
2018-07-23T23:29:37.071Z,4.60
2018-07-23T23:32:06.607Z,5.87
2018-07-23T23:34:34.579Z,8.10
2018-07-23T23:37:02.717Z,5.47
2018-07-23T23:39:31.745Z,4.30
2018-07-23T23:41:59.848Z,6.43
2018-07-23T23:44:27.837Z,4.27
2018-07-23T23:46:55.885Z,4.20
2018-07-23T23:49:23.892Z,4.67
2018-07-23T23:51:52.390Z,4.40
2018-07-23T23:57:45.068Z,5.40
